createdAt,value
2024-05-09T00:00:54.159Z,38.00
2024-05-09T00:02:14.643Z,38.00
2024-05-09T00:03:34.992Z,37.83
2024-05-09T00:04:55.273Z,37.00
2024-05-09T00:06:15.388Z,34.83
2024-05-09T00:07:35.215Z,31.83
2024-05-09T00:08:54.902Z,28.00
2024-05-09T00:10:25.066Z,24.17
2024-05-09T00:11:49.323Z,20.50
2024-05-09T00:13:10.727Z,18.33
2024-05-09T00:14:31.528Z,17.17
2024-05-09T00:15:50.924Z,17.00
2024-05-09T00:17:11.307Z,17.00
2024-05-09T00:18:32.355Z,16.83
2024-05-09T00:19:52.765Z,16.00
2024-05-09T00:21:12.835Z,16.00
2024-05-09T00:22:32.400Z,16.00
2024-05-09T00:23:52.759Z,17.00
2024-05-09T00:25:13.368Z,17.17
2024-05-09T00:26:33.302Z,18.00
2024-05-09T00:27:52.993Z,18.50
2024-05-09T00:29:25.055Z,19.00
2024-05-09T00:30:54.447Z,19.00
2024-05-09T00:32:23.923Z,19.50
2024-05-09T00:33:44.411Z,20.17
2024-05-09T00:35:05.254Z,21.50
2024-05-09T00:36:25.308Z,23.83
2024-05-09T00:37:45.917Z,25.83
2024-05-09T00:39:06.086Z,27.67
2024-05-09T00:40:35.725Z,28.00
2024-05-09T00:41:59.741Z,28.00
2024-05-09T00:43:19.808Z,27.50
2024-05-09T00:44:39.688Z,26.17
2024-05-09T00:46:00.918Z,25.00
2024-05-09T00:47:21.573Z,26.17
2024-05-09T00:48:41.525Z,31.33
2024-05-09T00:50:03.097Z,34.67
2024-05-09T00:51:24.305Z,36.33
2024-05-09T00:52:46.016Z,36.50
2024-05-09T00:54:06.719Z,35.83
2024-05-09T00:55:26.969Z,34.33
2024-05-09T00:56:48.768Z,32.33
2024-05-09T00:58:11.281Z,30.50
2024-05-09T00:59:31.580Z,30.00
2024-05-09T01:00:51.787Z,30.00
2024-05-09T01:02:11.988Z,29.67
2024-05-09T01:03:31.848Z,27.83
2024-05-09T01:04:58.538Z,25.33
2024-05-09T01:06:19.843Z,21.83
2024-05-09T01:07:39.642Z,20.17
2024-05-09T01:08:59.201Z,19.00
2024-05-09T01:10:37.708Z,18.33
2024-05-09T01:11:58.216Z,18.00
2024-05-09T01:13:18.824Z,17.17
2024-05-09T01:14:42.745Z,18.00
2024-05-09T01:16:02.562Z,17.17
2024-05-09T01:17:22.628Z,15.33
2024-05-09T01:18:42.506Z,13.50
2024-05-09T01:20:02.636Z,11.17
2024-05-09T01:21:22.889Z,9.33
2024-05-09T01:22:43.597Z,8.00
2024-05-09T01:24:03.986Z,7.83
2024-05-09T01:25:24.481Z,7.00
2024-05-09T01:26:53.051Z,7.00
2024-05-09T01:28:14.142Z,7.50
2024-05-09T01:29:33.713Z,8.00
2024-05-09T01:30:53.581Z,8.00
2024-05-09T01:32:14.060Z,8.00
2024-05-09T01:33:33.924Z,8.00
2024-05-09T01:34:53.933Z,8.00
2024-05-09T01:36:14.261Z,8.00
2024-05-09T01:37:34.206Z,9.00
2024-05-09T01:38:53.569Z,9.00
2024-05-09T01:40:18.437Z,9.00
2024-05-09T01:41:41.812Z,9.00
2024-05-09T01:43:02.196Z,9.00
2024-05-09T01:44:22.968Z,10.00
2024-05-09T01:45:45.278Z,10.00
2024-05-09T01:47:05.506Z,9.00
2024-05-09T01:48:26.139Z,9.00
2024-05-09T01:49:46.000Z,9.00
2024-05-09T01:51:05.944Z,9.00
2024-05-09T01:52:25.957Z,9.00
2024-05-09T01:54:36.852Z,9.00
2024-05-09T01:55:56.213Z,9.00
2024-05-09T01:57:34.617Z,9.00
2024-05-09T01:59:06.349Z,9.00
2024-05-09T02:00:37.096Z,10.00
2024-05-09T02:02:01.178Z,11.00
2024-05-09T02:03:21.479Z,11.00
2024-05-09T02:04:41.756Z,11.00
2024-05-09T02:06:03.029Z,10.50
2024-05-09T02:07:23.234Z,10.00
2024-05-09T02:08:45.499Z,9.00
2024-05-09T02:10:13.629Z,9.00
2024-05-09T02:11:44.005Z,8.00
2024-05-09T02:13:08.750Z,8.00
2024-05-09T02:14:29.221Z,8.00
2024-05-09T02:15:51.265Z,7.83
2024-05-09T02:17:10.994Z,7.00
2024-05-09T02:18:30.711Z,7.00
2024-05-09T02:19:53.784Z,7.00
2024-05-09T02:21:24.164Z,7.00
2024-05-09T02:22:43.777Z,7.00
2024-05-09T02:24:03.099Z,7.00
2024-05-09T02:25:26.703Z,7.00
2024-05-09T02:26:46.699Z,6.00
2024-05-09T02:28:07.366Z,6.00
2024-05-09T02:29:26.976Z,6.00
2024-05-09T02:30:46.400Z,6.00
2024-05-09T02:32:06.689Z,6.00
2024-05-09T02:33:26.344Z,6.00
2024-05-09T02:34:46.792Z,6.67
2024-05-09T02:36:10.556Z,7.00
2024-05-09T02:37:33.761Z,7.00
2024-05-09T02:38:57.429Z,7.00
2024-05-09T02:40:25.232Z,7.00
2024-05-09T02:41:49.537Z,8.00
2024-05-09T02:43:12.724Z,8.67
2024-05-09T02:44:34.032Z,9.00
2024-05-09T02:45:54.595Z,9.00
2024-05-09T02:47:14.057Z,9.00
2024-05-09T02:48:35.105Z,10.00
2024-05-09T02:49:55.378Z,10.00
2024-05-09T02:51:15.314Z,10.00
2024-05-09T02:52:36.076Z,10.00
2024-05-09T02:53:55.792Z,10.00
2024-05-09T02:55:15.261Z,10.83
2024-05-09T02:56:43.715Z,11.00
2024-05-09T02:58:03.496Z,11.00
2024-05-09T02:59:23.099Z,11.00
2024-05-09T03:01:31.921Z,11.00
2024-05-09T03:02:29.782Z,10.33
2024-05-09T03:03:51.269Z,11.00
2024-05-09T03:05:11.144Z,10.83
2024-05-09T03:06:30.758Z,10.00
2024-05-09T03:07:51.313Z,10.00
2024-05-09T03:09:11.347Z,10.00
2024-05-09T03:10:35.771Z,10.00
2024-05-09T03:12:18.960Z,10.00
2024-05-09T03:13:40.464Z,10.00
2024-05-09T03:15:35.553Z,10.00
2024-05-09T03:17:02.955Z,10.00
2024-05-09T03:18:25.987Z,9.00
2024-05-09T03:19:45.555Z,9.00
2024-05-09T03:21:07.040Z,9.00
2024-05-09T03:22:43.734Z,9.00
2024-05-09T03:24:31.521Z,9.00
2024-05-09T03:25:53.114Z,8.00
2024-05-09T03:27:19.201Z,8.00
2024-05-09T03:28:41.071Z,8.00
2024-05-09T03:30:01.529Z,8.00
2024-05-09T03:31:21.349Z,8.00
2024-05-09T03:32:43.239Z,8.00
2024-05-09T03:34:03.438Z,8.00
2024-05-09T03:35:23.251Z,8.00
2024-05-09T03:36:43.339Z,8.00
2024-05-09T03:38:04.185Z,8.00
2024-05-09T03:39:23.615Z,8.00
2024-05-09T03:40:45.881Z,8.00
2024-05-09T03:42:08.667Z,9.00
2024-05-09T03:43:29.815Z,9.00
2024-05-09T03:44:51.599Z,9.00
2024-05-09T03:46:12.308Z,8.17
2024-05-09T03:47:50.591Z,8.00
2024-05-09T03:49:10.530Z,8.00
2024-05-09T03:50:35.467Z,8.00
2024-05-09T03:52:04.212Z,8.00
2024-05-09T03:53:32.563Z,8.00
2024-05-09T03:54:52.772Z,8.00
2024-05-09T03:56:40.284Z,8.00
2024-05-09T03:58:00.876Z,8.00
2024-05-09T03:59:20.862Z,8.17
2024-05-09T04:00:41.494Z,9.00
2024-05-09T04:02:02.214Z,9.50
2024-05-09T04:03:21.907Z,10.17
2024-05-09T04:04:43.711Z,11.17
2024-05-09T04:06:58.845Z,12.33
2024-05-09T04:08:27.682Z,13.00
2024-05-09T04:09:47.384Z,13.00
2024-05-09T04:11:06.965Z,13.83
2024-05-09T04:12:38.731Z,14.67
2024-05-09T04:13:58.886Z,16.00
2024-05-09T04:15:19.637Z,16.00
2024-05-09T04:16:39.744Z,15.00
2024-05-09T04:18:00.741Z,15.00
2024-05-09T04:19:21.771Z,15.00
2024-05-09T04:20:41.886Z,15.00
2024-05-09T04:22:01.714Z,17.00
2024-05-09T04:23:21.555Z,19.00
2024-05-09T04:24:41.632Z,19.00
2024-05-09T04:26:03.306Z,19.00
2024-05-09T04:27:24.280Z,20.33
2024-05-09T04:28:44.887Z,23.17
2024-05-09T04:30:07.990Z,24.83
2024-05-09T04:31:35.404Z,24.50
2024-05-09T04:32:55.626Z,23.33
2024-05-09T04:34:16.030Z,22.00
2024-05-09T04:35:36.686Z,21.00
2024-05-09T04:36:59.711Z,20.00
2024-05-09T04:38:20.744Z,20.00
2024-05-09T04:39:44.258Z,20.00
2024-05-09T04:41:07.796Z,20.33
2024-05-09T04:42:27.809Z,21.00
2024-05-09T04:43:50.064Z,22.00
2024-05-09T04:45:10.613Z,22.00
2024-05-09T04:46:30.502Z,22.00
2024-05-09T04:47:50.075Z,22.00
2024-05-09T04:49:09.933Z,23.17
2024-05-09T04:50:36.702Z,27.50
2024-05-09T04:51:58.888Z,30.00
2024-05-09T04:53:19.271Z,29.17
2024-05-09T04:54:39.245Z,30.00
2024-05-09T04:55:59.095Z,54.17
2024-05-09T04:57:18.994Z,83.67
2024-05-09T04:58:39.633Z,74.67
2024-05-09T05:00:01.544Z,65.50
2024-05-09T05:01:21.671Z,64.50
2024-05-09T05:02:41.534Z,60.67
2024-05-09T05:04:02.107Z,58.50
2024-05-09T05:05:22.037Z,57.00
2024-05-09T05:06:42.617Z,58.67
2024-05-09T05:08:03.034Z,85.33
2024-05-09T05:09:22.562Z,121.00
2024-05-09T05:10:43.203Z,109.50
2024-05-09T05:12:22.950Z,88.83
2024-05-09T05:13:43.607Z,84.50
2024-05-09T05:15:03.789Z,81.17
2024-05-09T05:16:24.459Z,75.17
2024-05-09T05:17:44.868Z,70.00
2024-05-09T05:19:07.570Z,64.00
2024-05-09T05:20:33.674Z,63.00
2024-05-09T05:21:54.138Z,63.50
2024-05-09T05:23:15.991Z,65.00
2024-05-09T05:24:36.598Z,71.17
2024-05-09T05:25:56.287Z,73.67
2024-05-09T05:27:16.965Z,73.00
2024-05-09T05:28:37.445Z,73.00
2024-05-09T05:29:57.416Z,78.17
2024-05-09T05:31:17.556Z,86.83
2024-05-09T05:32:38.578Z,90.67
2024-05-09T05:33:58.366Z,99.83
2024-05-09T05:35:18.114Z,102.83
2024-05-09T05:36:37.902Z,97.83
2024-05-09T05:37:57.818Z,94.17
2024-05-09T05:39:17.510Z,84.17
2024-05-09T05:40:38.935Z,77.00
2024-05-09T05:42:01.203Z,76.00
2024-05-09T05:43:21.642Z,78.00
2024-05-09T05:44:42.139Z,89.50
2024-05-09T05:46:01.519Z,124.33
2024-05-09T05:47:23.848Z,171.67
2024-05-09T05:48:44.637Z,200.67
2024-05-09T05:50:07.201Z,216.17
2024-05-09T05:51:32.867Z,220.83
2024-05-09T05:52:53.220Z,188.83
2024-05-09T05:54:13.187Z,167.67
2024-05-09T05:55:33.312Z,163.33
2024-05-09T05:56:52.929Z,147.83
2024-05-09T05:58:13.770Z,114.33
2024-05-09T05:59:34.352Z,99.17
2024-05-09T06:00:54.133Z,98.50
2024-05-09T06:02:14.980Z,98.00
2024-05-09T06:03:35.854Z,112.83
2024-05-09T06:04:56.451Z,127.50
2024-05-09T06:06:16.683Z,132.00
2024-05-09T06:07:36.952Z,132.33
2024-05-09T06:08:57.617Z,138.67
2024-05-09T06:10:25.134Z,156.67
2024-05-09T06:11:46.539Z,175.00
2024-05-09T06:13:10.404Z,161.33
2024-05-09T06:14:31.636Z,147.17
2024-05-09T06:15:51.597Z,117.67
2024-05-09T06:17:12.760Z,128.33
2024-05-09T06:18:34.030Z,141.33
2024-05-09T06:19:54.008Z,143.00
2024-05-09T06:21:16.770Z,136.33
2024-05-09T06:22:36.776Z,125.67
2024-05-09T06:23:56.652Z,134.50
2024-05-09T06:25:17.205Z,139.17
2024-05-09T06:26:42.087Z,126.67
2024-05-09T06:28:03.764Z,116.00
2024-05-09T06:29:24.439Z,113.50
2024-05-09T06:30:44.894Z,132.00
2024-05-09T06:32:06.010Z,128.00
2024-05-09T06:33:26.546Z,115.83
2024-05-09T06:34:47.195Z,109.83
2024-05-09T06:36:07.233Z,116.33
2024-05-09T06:37:28.353Z,150.33
2024-05-09T06:38:48.994Z,149.00
2024-05-09T06:40:10.140Z,154.83
2024-05-09T06:41:30.802Z,149.17
2024-05-09T06:42:52.972Z,143.00
2024-05-09T06:44:12.757Z,134.00
2024-05-09T06:45:40.993Z,117.83
2024-05-09T06:47:00.495Z,115.67
2024-05-09T06:48:22.090Z,119.17
2024-05-09T06:49:43.053Z,118.00
2024-05-09T06:51:04.745Z,98.33
2024-05-09T06:52:24.710Z,84.17
2024-05-09T06:53:45.936Z,81.50
2024-05-09T06:55:07.800Z,69.83
2024-05-09T06:56:27.240Z,48.17
2024-05-09T06:57:47.844Z,48.17
2024-05-09T06:59:07.946Z,48.50
2024-05-09T07:00:35.593Z,48.17
2024-05-09T07:01:59.869Z,62.00
2024-05-09T07:03:20.443Z,72.67
2024-05-09T07:04:40.475Z,77.33
2024-05-09T07:06:00.442Z,74.17
2024-05-09T07:07:20.574Z,76.50
2024-05-09T07:08:41.051Z,79.33
2024-05-09T07:10:00.722Z,79.33
2024-05-09T07:11:21.413Z,73.33
2024-05-09T07:12:41.834Z,52.83
2024-05-09T07:14:02.473Z,40.67
2024-05-09T07:15:23.186Z,45.67
2024-05-09T07:16:44.234Z,50.50
2024-05-09T07:18:20.773Z,52.33
2024-05-09T07:19:41.428Z,54.17
2024-05-09T07:21:02.554Z,60.00
2024-05-09T07:22:24.555Z,77.83
2024-05-09T07:23:47.265Z,78.50
2024-05-09T07:25:07.894Z,85.00
2024-05-09T07:26:28.064Z,93.17
2024-05-09T07:27:48.903Z,90.67
2024-05-09T07:29:09.461Z,88.33
2024-05-09T07:30:33.513Z,90.50
2024-05-09T07:31:54.979Z,88.83
2024-05-09T07:33:16.600Z,87.33
2024-05-09T07:34:36.571Z,92.00
2024-05-09T07:35:56.694Z,93.00
2024-05-09T07:37:16.697Z,86.50
2024-05-09T07:38:36.459Z,70.50
2024-05-09T07:39:57.222Z,63.33
2024-05-09T07:41:16.970Z,80.00
2024-05-09T07:42:37.387Z,117.00
2024-05-09T07:43:57.508Z,119.67
2024-05-09T07:47:47.893Z,112.50
2024-05-09T07:53:34.298Z,56.00
2024-05-09T07:54:23.558Z,49.83
2024-05-09T07:55:43.579Z,57.33
2024-05-09T07:57:05.086Z,57.83
2024-05-09T07:58:26.245Z,57.83
2024-05-09T07:59:45.605Z,68.83
2024-05-09T08:01:06.928Z,111.33
2024-05-09T08:02:27.921Z,113.00
2024-05-09T08:03:47.902Z,104.00
2024-05-09T08:05:09.008Z,96.00
2024-05-09T08:06:29.623Z,72.33
2024-05-09T08:07:50.874Z,61.17
2024-05-09T08:09:16.744Z,50.50
2024-05-09T08:10:40.973Z,42.00
2024-05-09T08:12:01.546Z,43.17
2024-05-09T08:13:21.866Z,48.50
2024-05-09T08:14:45.381Z,47.83
2024-05-09T08:16:06.813Z,49.00
2024-05-09T08:17:27.770Z,46.33
2024-05-09T08:18:50.224Z,41.50
2024-05-09T08:20:11.398Z,37.17
2024-05-09T08:21:33.361Z,33.83
2024-05-09T08:22:53.944Z,31.83
2024-05-09T08:24:14.225Z,32.17
2024-05-09T08:25:34.246Z,34.83
2024-05-09T08:26:54.380Z,38.50
2024-05-09T08:28:14.553Z,47.33
2024-05-09T08:29:35.959Z,48.50
2024-05-09T08:30:57.220Z,44.67
2024-05-09T08:32:17.542Z,44.33
2024-05-09T08:33:46.772Z,58.50
2024-05-09T08:35:07.522Z,63.50
2024-05-09T08:36:28.318Z,74.50
2024-05-09T08:37:49.355Z,71.00
2024-05-09T08:39:10.025Z,67.00
2024-05-09T08:40:35.443Z,65.17
2024-05-09T08:41:57.461Z,71.67
2024-05-09T08:43:19.420Z,77.50
2024-05-09T08:44:40.580Z,78.50
2024-05-09T08:46:02.733Z,74.50
2024-05-09T08:47:23.525Z,79.33
2024-05-09T08:48:46.464Z,106.00
2024-05-09T08:50:13.569Z,91.00
2024-05-09T08:51:37.631Z,57.00
2024-05-09T08:52:58.238Z,39.17
2024-05-09T08:54:20.247Z,43.83
2024-05-09T08:55:43.176Z,50.17
2024-05-09T08:57:04.890Z,41.50
2024-05-09T08:58:26.499Z,33.33
2024-05-09T08:59:50.925Z,35.83
2024-05-09T09:01:12.083Z,31.67
2024-05-09T09:02:33.335Z,36.00
2024-05-09T09:03:53.841Z,39.33
2024-05-09T09:05:16.561Z,68.67
2024-05-09T09:06:37.472Z,82.83
2024-05-09T09:07:57.804Z,86.00
2024-05-09T09:09:18.403Z,73.67
2024-05-09T09:10:40.028Z,68.67
2024-05-09T09:11:59.935Z,58.33
2024-05-09T09:13:20.828Z,53.67
2024-05-09T09:14:41.285Z,40.50
2024-05-09T09:16:01.905Z,26.33
2024-05-09T09:17:22.426Z,30.33
2024-05-09T09:18:47.339Z,35.50
2024-05-09T09:20:13.990Z,38.67
2024-05-09T09:21:36.324Z,38.33
2024-05-09T09:22:57.775Z,34.00
2024-05-09T09:24:18.406Z,31.17
2024-05-09T09:25:41.376Z,29.33
2024-05-09T09:27:01.019Z,26.67
2024-05-09T09:28:23.409Z,23.67
2024-05-09T09:29:43.200Z,24.33
2024-05-09T09:31:04.385Z,25.00
2024-05-09T09:32:28.200Z,24.00
2024-05-09T09:33:49.845Z,24.00
2024-05-09T09:35:10.922Z,23.33
2024-05-09T09:36:31.623Z,22.00
2024-05-09T09:37:51.662Z,23.00
2024-05-09T09:39:17.048Z,21.50
2024-05-09T09:40:46.711Z,19.17
2024-05-09T09:42:11.224Z,20.00
2024-05-09T09:43:33.057Z,20.17
2024-05-09T09:45:02.133Z,26.33
2024-05-09T09:46:27.891Z,29.00
2024-05-09T09:47:50.778Z,29.00
2024-05-09T09:49:12.040Z,28.83
2024-05-09T09:50:35.335Z,27.67
2024-05-09T09:51:56.276Z,24.83
2024-05-09T09:53:16.718Z,20.67
2024-05-09T09:54:36.754Z,19.00
2024-05-09T09:55:58.035Z,19.00
2024-05-09T09:57:22.098Z,22.67
2024-05-09T09:58:44.403Z,29.83
2024-05-09T10:00:09.626Z,30.83
2024-05-09T10:01:34.074Z,29.67
2024-05-09T10:02:54.261Z,27.67
2024-05-09T10:04:17.981Z,25.17
2024-05-09T10:05:41.318Z,21.67
2024-05-09T10:07:08.072Z,19.17
2024-05-09T10:08:28.546Z,15.50
2024-05-09T10:09:49.895Z,13.00
2024-05-09T10:11:10.721Z,12.50
2024-05-09T10:12:31.279Z,12.33
2024-05-09T10:13:52.756Z,13.00
2024-05-09T10:15:13.651Z,14.00
2024-05-09T10:16:35.164Z,15.83
2024-05-09T10:18:05.460Z,17.00
2024-05-09T10:19:27.484Z,17.00
2024-05-09T10:20:48.550Z,16.00
2024-05-09T10:22:09.031Z,16.00
2024-05-09T10:23:31.366Z,16.83
2024-05-09T10:24:52.537Z,21.33
2024-05-09T10:26:12.781Z,24.00
2024-05-09T10:27:33.899Z,24.00
2024-05-09T10:28:57.712Z,23.67
2024-05-09T10:30:33.697Z,22.33
2024-05-09T10:31:59.282Z,20.33
2024-05-09T10:33:19.442Z,19.83
2024-05-09T10:34:40.374Z,19.00
2024-05-09T10:36:03.143Z,19.67
2024-05-09T10:37:28.088Z,21.33
2024-05-09T10:38:49.219Z,26.67
2024-05-09T10:40:23.346Z,28.50
2024-05-09T10:41:49.498Z,27.33
2024-05-09T10:43:09.012Z,26.50
2024-05-09T10:44:29.548Z,24.67
2024-05-09T10:45:50.249Z,23.00
2024-05-09T10:47:10.405Z,23.00
2024-05-09T10:48:31.528Z,37.83
2024-05-09T10:49:52.334Z,53.17
2024-05-09T10:51:13.139Z,43.17
2024-05-09T10:52:34.792Z,44.83
2024-05-09T10:53:56.642Z,44.17
2024-05-09T10:55:17.682Z,41.50
2024-05-09T10:56:38.064Z,35.83
2024-05-09T10:57:58.048Z,33.00
2024-05-09T10:59:17.951Z,33.00
2024-05-09T11:00:38.443Z,33.17
2024-05-09T11:01:59.478Z,34.50
2024-05-09T11:03:21.347Z,37.00
2024-05-09T11:04:45.478Z,45.00
2024-05-09T11:06:06.619Z,61.17
2024-05-09T11:07:27.531Z,60.33
2024-05-09T11:08:47.523Z,64.17
2024-05-09T11:10:12.481Z,69.33
2024-05-09T11:11:35.359Z,62.67
2024-05-09T11:12:55.441Z,58.50
2024-05-09T11:14:16.451Z,55.67
2024-05-09T11:15:40.237Z,55.00
2024-05-09T11:17:02.983Z,60.83
2024-05-09T11:18:26.198Z,85.83
2024-05-09T11:19:50.975Z,107.67
2024-05-09T11:21:11.575Z,105.67
2024-05-09T11:22:32.376Z,98.50
2024-05-09T11:23:52.478Z,91.00
2024-05-09T11:25:12.678Z,90.33
2024-05-09T11:26:32.800Z,101.00
2024-05-09T11:27:53.031Z,163.83
2024-05-09T11:29:15.756Z,230.50
2024-05-09T11:30:37.843Z,214.00
2024-05-09T11:31:57.762Z,208.00
2024-05-09T11:33:18.966Z,198.33
2024-05-09T11:34:40.954Z,193.50
2024-05-09T11:36:02.369Z,172.67
2024-05-09T11:37:22.591Z,163.00
2024-05-09T11:38:43.464Z,145.83
2024-05-09T11:40:05.468Z,145.83
2024-05-09T11:41:26.535Z,160.17
2024-05-09T11:42:48.191Z,165.50
2024-05-09T11:44:09.378Z,162.83
2024-05-09T11:45:29.195Z,160.00
2024-05-09T11:46:49.335Z,189.33
2024-05-09T11:48:09.801Z,191.50
2024-05-09T11:49:30.247Z,178.83
2024-05-09T11:50:50.885Z,183.00
2024-05-09T11:52:11.849Z,222.50
2024-05-09T11:53:32.252Z,227.17
2024-05-09T11:54:52.694Z,221.33
2024-05-09T11:56:14.359Z,241.83
2024-05-09T11:57:35.094Z,224.00
2024-05-09T11:58:55.463Z,210.33
2024-05-09T12:00:21.037Z,195.17
2024-05-09T12:01:49.248Z,200.83
2024-05-09T12:03:09.507Z,227.67
2024-05-09T12:04:29.522Z,225.67
2024-05-09T12:05:49.906Z,268.33
2024-05-09T12:07:12.863Z,270.50
2024-05-09T12:08:33.379Z,259.50
2024-05-09T12:09:52.968Z,254.00
2024-05-09T12:11:14.078Z,275.00
2024-05-09T12:12:37.111Z,268.33
2024-05-09T12:13:57.351Z,277.50
2024-05-09T12:15:17.818Z,276.83
2024-05-09T12:16:37.984Z,316.17
2024-05-09T12:18:00.243Z,308.17
2024-05-09T12:19:23.633Z,289.17
2024-05-09T12:20:44.597Z,284.00
2024-05-09T12:22:04.933Z,283.50
2024-05-09T12:23:25.346Z,322.00
2024-05-09T12:24:45.462Z,343.50
2024-05-09T12:26:05.017Z,309.00
2024-05-09T12:27:25.436Z,301.00
2024-05-09T12:28:45.908Z,292.50
2024-05-09T12:30:08.968Z,267.67
2024-05-09T12:31:32.811Z,253.83
2024-05-09T12:32:53.371Z,254.83
2024-05-09T12:34:15.392Z,264.50
2024-05-09T12:35:35.923Z,286.33
2024-05-09T12:36:56.467Z,285.33
2024-05-09T12:38:15.825Z,279.50
2024-05-09T12:39:36.074Z,279.50
2024-05-09T12:40:56.935Z,276.17
2024-05-09T12:42:26.556Z,262.50
2024-05-09T12:43:48.767Z,248.67
2024-05-09T12:45:09.524Z,228.67
2024-05-09T12:46:30.957Z,220.83
2024-05-09T12:47:51.069Z,225.00
2024-05-09T12:49:11.770Z,231.00
2024-05-09T12:50:34.508Z,235.00
2024-05-09T12:51:54.807Z,216.83
2024-05-09T12:53:14.938Z,194.67
2024-05-09T12:54:35.677Z,201.33
2024-05-09T12:55:59.946Z,211.00
2024-05-09T12:57:22.494Z,198.33
2024-05-09T12:58:43.219Z,186.83
2024-05-09T13:00:05.745Z,171.00
2024-05-09T13:01:28.345Z,168.17
2024-05-09T13:02:48.692Z,185.83
2024-05-09T13:04:09.088Z,186.33
2024-05-09T13:05:30.088Z,205.17
2024-05-09T13:06:50.017Z,214.17
2024-05-09T13:08:10.522Z,177.00
2024-05-09T13:09:30.868Z,172.67
2024-05-09T13:10:51.096Z,185.33
2024-05-09T13:12:11.799Z,194.50
2024-05-09T13:13:31.640Z,213.50
2024-05-09T13:14:52.084Z,210.83
2024-05-09T13:16:13.303Z,209.17
2024-05-09T13:17:34.058Z,226.00
2024-05-09T13:18:53.791Z,269.00
2024-05-09T13:20:22.852Z,255.50
2024-05-09T13:21:49.891Z,230.67
2024-05-09T13:23:10.254Z,211.83
2024-05-09T13:24:31.266Z,209.50
2024-05-09T13:25:51.417Z,191.17
2024-05-09T13:27:11.988Z,165.00
2024-05-09T13:28:32.758Z,188.00
2024-05-09T13:29:56.317Z,253.67
2024-05-09T13:31:17.072Z,221.50
2024-05-09T13:32:37.390Z,196.83
2024-05-09T13:33:57.575Z,169.00
2024-05-09T13:35:17.991Z,170.50
2024-05-09T13:36:38.896Z,182.83
2024-05-09T13:37:59.689Z,195.83
2024-05-09T13:39:20.343Z,190.00
2024-05-09T13:40:41.110Z,189.00
2024-05-09T13:42:04.307Z,180.33
2024-05-09T13:43:24.543Z,174.67
2024-05-09T13:44:44.272Z,177.33
2024-05-09T13:46:03.877Z,179.17
2024-05-09T13:47:24.610Z,178.00
2024-05-09T13:48:44.459Z,169.00
2024-05-09T13:50:06.902Z,167.67
2024-05-09T13:51:29.395Z,170.33
2024-05-09T13:52:49.520Z,193.00
2024-05-09T13:54:10.211Z,195.00
2024-05-09T13:55:30.547Z,191.83
2024-05-09T13:56:51.433Z,199.67
2024-05-09T13:58:11.773Z,238.17
2024-05-09T13:59:33.222Z,241.83
2024-05-09T14:00:55.532Z,234.50
2024-05-09T14:02:15.511Z,255.67
2024-05-09T14:03:36.061Z,266.33
2024-05-09T14:04:55.816Z,279.17
2024-05-09T14:06:16.195Z,281.17
2024-05-09T14:07:36.395Z,280.83
2024-05-09T14:08:56.695Z,277.17
2024-05-09T14:10:23.247Z,311.00
2024-05-09T14:11:49.042Z,331.83
2024-05-09T14:13:09.676Z,319.33
2024-05-09T14:14:29.733Z,348.83
2024-05-09T14:15:49.747Z,328.83
2024-05-09T14:17:09.804Z,310.33
2024-05-09T14:18:29.675Z,335.17
2024-05-09T14:19:49.587Z,357.67
2024-05-09T14:21:10.498Z,384.83
2024-05-09T14:22:31.108Z,359.83
2024-05-09T14:23:51.867Z,350.50
2024-05-09T14:25:12.206Z,342.83
2024-05-09T14:26:32.689Z,340.17
2024-05-09T14:27:53.634Z,340.17
2024-05-09T14:29:13.311Z,337.83
2024-05-09T14:30:37.363Z,308.67
2024-05-09T14:31:59.193Z,287.33
2024-05-09T14:33:24.240Z,302.67
2024-05-09T14:34:45.088Z,308.00
2024-05-09T14:36:06.205Z,323.67
2024-05-09T14:37:25.741Z,313.17
2024-05-09T14:38:46.332Z,276.83
2024-05-09T14:40:07.476Z,291.17
2024-05-09T14:41:32.638Z,287.83
2024-05-09T14:42:53.206Z,304.50
2024-05-09T14:44:13.921Z,304.67
2024-05-09T14:45:34.327Z,281.83
2024-05-09T14:46:54.833Z,258.83
2024-05-09T14:48:15.440Z,261.17
2024-05-09T14:49:35.601Z,280.00
2024-05-09T14:50:55.534Z,282.67
2024-05-09T14:52:17.112Z,273.67
2024-05-09T14:53:37.729Z,270.00
2024-05-09T14:55:00.630Z,271.50
2024-05-09T14:56:21.270Z,257.17
2024-05-09T14:57:41.480Z,246.00
2024-05-09T14:59:02.403Z,255.33
2024-05-09T15:00:28.593Z,252.33
2024-05-09T15:01:52.916Z,242.33
2024-05-09T15:03:13.887Z,248.67
2024-05-09T15:04:34.029Z,251.67
2024-05-09T15:05:54.229Z,240.50
2024-05-09T15:07:14.760Z,227.17
2024-05-09T15:08:35.290Z,210.33
2024-05-09T15:09:56.114Z,205.50
2024-05-09T15:11:16.495Z,202.17
2024-05-09T15:12:36.666Z,204.33
2024-05-09T15:13:57.277Z,187.00
2024-05-09T15:15:18.002Z,203.17
2024-05-09T15:16:38.751Z,205.50
2024-05-09T15:17:59.784Z,201.50
2024-05-09T15:19:20.778Z,218.67
2024-05-09T15:20:42.641Z,233.50
2024-05-09T15:22:04.081Z,223.17
2024-05-09T15:23:24.634Z,220.33
2024-05-09T15:24:45.372Z,212.67
2024-05-09T15:26:05.694Z,192.50
2024-05-09T15:27:26.089Z,198.50
2024-05-09T15:28:45.919Z,229.50
2024-05-09T15:30:10.410Z,241.67
2024-05-09T15:31:30.535Z,268.83
2024-05-09T15:32:52.566Z,249.67
2024-05-09T15:34:13.696Z,242.17
2024-05-09T15:35:34.714Z,249.00
2024-05-09T15:36:57.828Z,245.00
2024-05-09T15:38:18.459Z,267.83
2024-05-09T15:39:40.164Z,293.83
2024-05-09T15:41:00.826Z,273.00
2024-05-09T15:42:20.920Z,250.83
2024-05-09T15:43:41.092Z,250.50
2024-05-09T15:45:03.971Z,274.67
2024-05-09T15:46:24.845Z,308.50
2024-05-09T15:47:45.499Z,314.83
2024-05-09T15:49:06.481Z,301.33
2024-05-09T15:50:32.868Z,288.33
2024-05-09T15:51:58.326Z,300.00
2024-05-09T15:53:19.504Z,294.00
2024-05-09T15:54:39.307Z,276.17
2024-05-09T15:55:59.539Z,265.67
2024-05-09T15:57:19.518Z,282.50
2024-05-09T15:58:40.607Z,358.83
2024-05-09T16:00:01.032Z,351.67
2024-05-09T16:01:22.083Z,328.33
2024-05-09T16:02:43.283Z,320.83
2024-05-09T16:04:03.789Z,343.67
2024-05-09T16:05:24.580Z,339.33
2024-05-09T16:06:46.957Z,326.00
2024-05-09T16:08:07.436Z,298.50
2024-05-09T16:09:27.258Z,297.00
2024-05-09T16:10:48.343Z,295.50
2024-05-09T16:12:09.317Z,296.00
2024-05-09T16:13:29.096Z,311.83
2024-05-09T16:14:49.734Z,322.00
2024-05-09T16:16:10.198Z,309.67
2024-05-09T16:17:31.046Z,314.00
2024-05-09T16:18:51.915Z,347.17
2024-05-09T16:20:18.116Z,334.00
2024-05-09T16:21:42.765Z,329.00
2024-05-09T16:23:03.085Z,326.67
2024-05-09T16:24:23.454Z,317.67
2024-05-09T16:25:46.803Z,317.83
2024-05-09T16:27:09.345Z,317.00
2024-05-09T16:28:29.459Z,310.00
2024-05-09T16:29:50.004Z,279.33
2024-05-09T16:31:10.235Z,278.17
2024-05-09T16:32:30.384Z,282.33
2024-05-09T16:33:50.629Z,289.67
2024-05-09T16:35:10.924Z,288.83
2024-05-09T16:36:30.623Z,309.33
2024-05-09T16:37:51.762Z,338.00
2024-05-09T16:39:12.119Z,342.83
2024-05-09T16:40:37.545Z,343.67
2024-05-09T16:42:00.268Z,335.67
2024-05-09T16:43:20.321Z,333.50
2024-05-09T16:44:40.610Z,327.33
2024-05-09T16:46:02.827Z,309.67
2024-05-09T16:47:23.818Z,294.50
2024-05-09T16:48:45.741Z,299.17
2024-05-09T16:50:08.607Z,321.83
2024-05-09T16:51:28.776Z,300.17
2024-05-09T16:52:49.168Z,291.67
2024-05-09T16:54:09.474Z,329.50
2024-05-09T16:55:29.424Z,334.83
2024-05-09T16:56:50.016Z,331.17
2024-05-09T16:58:11.408Z,320.33
2024-05-09T16:59:31.106Z,309.50
2024-05-09T17:00:50.988Z,310.33
2024-05-09T17:02:11.299Z,316.00
2024-05-09T17:03:31.881Z,327.50
2024-05-09T17:04:53.080Z,333.33
2024-05-09T17:06:13.578Z,335.83
2024-05-09T17:07:33.910Z,339.83
2024-05-09T17:08:55.481Z,338.00
2024-05-09T17:10:22.180Z,335.67
2024-05-09T17:11:47.177Z,343.50
2024-05-09T17:13:09.112Z,340.50
2024-05-09T17:14:28.752Z,339.00
2024-05-09T17:15:49.362Z,338.00
2024-05-09T17:17:09.702Z,338.67
2024-05-09T17:18:30.625Z,357.33
2024-05-09T17:19:50.420Z,370.33
2024-05-09T17:21:11.452Z,369.33
2024-05-09T17:22:31.524Z,371.17
2024-05-09T17:23:54.601Z,366.00
2024-05-09T17:25:15.171Z,351.67
2024-05-09T17:26:35.681Z,316.17
2024-05-09T17:27:56.505Z,284.83
2024-05-09T17:29:16.448Z,270.83
2024-05-09T17:30:38.895Z,283.67